PWSweather.com
Personal Weather Stations
Station Observations
IPUMONTE2
MontelabbateIT 61025

MontelabbateIT 61025

Lat: 43.848, Lon: 12.7895

Elevation: 196

Station Type: LaCrosse WS3600

http://www.montelabbatemet.altervista.org/

Latest ConditionsUpdated 4:21:00 AM GMT+01:01 Friday, Apr 19, 2019
Currently Today's Max Today's Min Today's Average
Temperature 43.1°F6.2°C 46.7°F8.2°C 43.1°F6.2°C 44.9°F7.2°C
Dew Point 39.5°F4.2°C 41.8°F5.4°C 39.5°F4.2°C 40.6°F4.8°C
Winds 3.5 mph SW5.6 kmh SW 5.1 mph -8.2 kmh - - 2.8 mph 4.5 kmh
Wind Gusts 3.5 mph5.6 kmh 5.5 mph8.9 kmh - -
Humidity 87% 87% 81% 85%
Pressure 30.18 in1022.0 mb 30.18 in1022.0 mb 30.17 in1021.7 mb -
Hour Temp Dew Point Humidity Winds Wind Gusts Pressure Precip Precip Rate Daily Precip Total
04:21 AM 43.1°F6.2°C 39.5°F4.2°C 87% 3.5 mph SW5.6 kmh SW 3.5 mph5.6 kmh 30.18 in1022.0 mb 0.00 in0.0 mm 0.00 in0.0 mm 0.00 in0.0 mm
04:15 AM 43.1°F6.2°C 39.5°F4.2°C 87% 2.5 mph SSW4.0 kmh SSW 3.1 mph5.0 kmh 30.18 in1022.0 mb 0.00 in0.0 mm 0.00 in0.0 mm 0.00 in0.0 mm
04:10 AM 43.1°F6.2°C 39.5°F4.2°C 87% 2.2 mph SW3.5 kmh SW 3.5 mph5.6 kmh 30.18 in1022.0 mb 0.00 in0.0 mm 0.00 in0.0 mm 0.00 in0.0 mm
04:05 AM 43.1°F6.2°C 39.5°F4.2°C 87% 2.3 mph SW3.7 kmh SW 4.9 mph7.9 kmh 30.18 in1022.0 mb 0.00 in0.0 mm 0.00 in0.0 mm 0.00 in0.0 mm
04:00 AM 43.3°F6.3°C 39.7°F4.3°C 87% 3.0 mph SW4.8 kmh SW 4.9 mph7.9 kmh 30.18 in1022.0 mb 0.00 in0.0 mm 0.00 in0.0 mm 0.00 in0.0 mm
03:55 AM 43.5°F6.4°C 39.9°F4.4°C 87% 2.1 mph SSW3.4 kmh SSW 5.5 mph8.9 kmh 30.18 in1022.0 mb 0.00 in0.0 mm 0.00 in0.0 mm 0.00 in0.0 mm
03:50 AM 43.5°F6.4°C 39.9°F4.4°C 87% 4.0 mph SSW6.4 kmh SSW 5.5 mph8.9 kmh 30.18 in1022.0 mb 0.00 in0.0 mm 0.00 in0.0 mm 0.00 in0.0 mm
03:45 AM 43.7°F6.5°C 39.7°F4.3°C 87% 2.9 mph SSW4.7 kmh SSW 3.5 mph5.6 kmh 30.18 in1022.0 mb 0.00 in0.0 mm 0.00 in0.0 mm 0.00 in0.0 mm
03:40 AM 43.7°F6.5°C 39.7°F4.3°C 86% 2.2 mph S3.5 kmh S 3.5 mph5.6 kmh 30.18 in1022.0 mb 0.00 in0.0 mm 0.00 in0.0 mm 0.00 in0.0 mm
03:35 AM 43.8°F6.6°C 39.9°F4.4°C 86% 3.4 mph SW5.5 kmh SW 3.8 mph6.1 kmh 30.18 in1022.0 mb 0.00 in0.0 mm 0.00 in0.0 mm 0.00 in0.0 mm
03:30 AM 43.8°F6.6°C 39.9°F4.4°C 86% 2.0 mph SW3.2 kmh SW 3.8 mph6.1 kmh 30.18 in1022.0 mb 0.00 in0.0 mm 0.00 in0.0 mm 0.00 in0.0 mm
03:25 AM 43.8°F6.6°C 39.9°F4.4°C 86% 3.6 mph SSW5.8 kmh SSW 3.8 mph6.1 kmh 30.18 in1022.0 mb 0.00 in0.0 mm 0.00 in0.0 mm 0.00 in0.0 mm
03:20 AM 44.2°F6.8°C 40.3°F4.6°C 86% 2.6 mph WSW4.2 kmh WSW 4.9 mph7.9 kmh 30.18 in1022.0 mb 0.00 in0.0 mm 0.00 in0.0 mm 0.00 in0.0 mm
03:15 AM 44.2°F6.8°C 40.3°F4.6°C 86% 2.4 mph SW3.9 kmh SW 4.9 mph7.9 kmh 30.17 in1021.7 mb 0.00 in0.0 mm 0.00 in0.0 mm 0.00 in0.0 mm
03:10 AM 44.2°F6.8°C 40.3°F4.6°C 86% 4.1 mph SSW6.6 kmh SSW 5.5 mph8.9 kmh 30.17 in1021.7 mb 0.00 in0.0 mm 0.00 in0.0 mm 0.00 in0.0 mm
03:05 AM 44.2°F6.8°C 40.0°F4.4°C 85% 5.1 mph SSW8.2 kmh SSW 5.5 mph8.9 kmh 30.18 in1022.0 mb 0.00 in0.0 mm 0.00 in0.0 mm 0.00 in0.0 mm
03:00 AM 44.4°F6.9°C 40.4°F4.7°C 86% 2.6 mph SSW4.2 kmh SSW 4.4 mph7.1 kmh 30.17 in1021.7 mb 0.00 in0.0 mm 0.00 in0.0 mm 0.00 in0.0 mm
02:55 AM 44.4°F6.9°C 40.4°F4.7°C 86% 3.7 mph SSW6.0 kmh SSW 4.6 mph7.4 kmh 30.17 in1021.7 mb 0.00 in0.0 mm 0.00 in0.0 mm 0.00 in0.0 mm
02:50 AM 44.2°F6.8°C 40.3°F4.6°C 86% 3.4 mph SW5.5 kmh SW 4.6 mph7.4 kmh 30.17 in1021.7 mb 0.00 in0.0 mm 0.00 in0.0 mm 0.00 in0.0 mm
02:45 AM 44.4°F6.9°C 40.1°F4.5°C 85% 3.1 mph SSW5.0 kmh SSW 4.0 mph6.4 kmh 30.18 in1022.0 mb 0.00 in0.0 mm 0.00 in0.0 mm 0.00 in0.0 mm
02:40 AM 44.4°F6.9°C 40.1°F4.5°C 85% 3.3 mph SSW5.3 kmh SSW 4.0 mph6.4 kmh 30.17 in1021.7 mb 0.00 in0.0 mm 0.00 in0.0 mm 0.00 in0.0 mm
02:35 AM 44.4°F6.9°C 40.1°F4.5°C 85% 3.7 mph SSW6.0 kmh SSW 4.0 mph6.4 kmh 30.17 in1021.7 mb 0.00 in0.0 mm 0.00 in0.0 mm 0.00 in0.0 mm
02:30 AM 44.7°F7.1°C 40.5°F4.7°C 85% 3.8 mph SSW6.1 kmh SSW 3.8 mph6.1 kmh 30.17 in1021.7 mb 0.00 in0.0 mm 0.00 in0.0 mm 0.00 in0.0 mm
02:25 AM 44.7°F7.1°C 40.5°F4.7°C 85% 2.6 mph SSW4.2 kmh SSW 3.5 mph5.6 kmh 30.17 in1021.7 mb 0.00 in0.0 mm 0.00 in0.0 mm 0.00 in0.0 mm
02:20 AM 44.7°F7.1°C 40.5°F4.7°C 85% 3.0 mph SW4.8 kmh SW 3.5 mph5.6 kmh 30.17 in1021.7 mb 0.00 in0.0 mm 0.00 in0.0 mm 0.00 in0.0 mm
02:15 AM 44.9°F7.2°C 40.7°F4.8°C 85% 1.1 mph WSW1.8 kmh WSW 4.2 mph6.8 kmh 30.17 in1021.7 mb 0.00 in0.0 mm 0.00 in0.0 mm 0.00 in0.0 mm
02:10 AM 45.1°F7.3°C 40.9°F4.9°C 85% 3.0 mph SW4.8 kmh SW 4.2 mph6.8 kmh 30.17 in1021.7 mb 0.00 in0.0 mm 0.00 in0.0 mm 0.00 in0.0 mm
02:05 AM 44.9°F7.2°C 40.4°F4.7°C 84% 3.5 mph SSW5.6 kmh SSW 3.8 mph6.1 kmh 30.17 in1021.7 mb 0.00 in0.0 mm 0.00 in0.0 mm 0.00 in0.0 mm
02:00 AM 45.1°F7.3°C 40.6°F4.8°C 84% 2.2 mph SW3.5 kmh SW 2.6 mph4.2 kmh 30.17 in1021.7 mb 0.00 in0.0 mm 0.00 in0.0 mm 0.00 in0.0 mm
01:55 AM 45.3°F7.4°C 41.0°F5.0°C 85% 2.4 mph SSW3.9 kmh SSW 4.0 mph6.4 kmh 30.17 in1021.7 mb 0.00 in0.0 mm 0.00 in0.0 mm 0.00 in0.0 mm
01:50 AM 45.1°F7.3°C 40.9°F4.9°C 85% 2.6 mph SW4.2 kmh SW 4.0 mph6.4 kmh 30.17 in1021.7 mb 0.00 in0.0 mm 0.00 in0.0 mm 0.00 in0.0 mm
01:45 AM 45.3°F7.4°C 41.0°F5.0°C 85% 3.3 mph S5.3 kmh S 4.0 mph6.4 kmh 30.17 in1021.7 mb 0.00 in0.0 mm 0.00 in0.0 mm 0.00 in0.0 mm
01:40 AM 45.6°F7.6°C 41.4°F5.2°C 85% 3.5 mph SW5.6 kmh SW 3.8 mph6.1 kmh 30.17 in1021.7 mb 0.00 in0.0 mm 0.00 in0.0 mm 0.00 in0.0 mm
01:35 AM 45.8°F7.7°C 41.6°F5.3°C 85% 1.7 mph SW2.7 kmh SW 4.6 mph7.4 kmh 30.17 in1021.7 mb 0.00 in0.0 mm 0.00 in0.0 mm 0.00 in0.0 mm
01:30 AM 45.1°F7.3°C 40.9°F4.9°C 85% 4.6 mph SSW7.4 kmh SSW 4.6 mph7.4 kmh 30.17 in1021.7 mb 0.00 in0.0 mm 0.00 in0.0 mm 0.00 in0.0 mm
01:25 AM 45.1°F7.3°C 40.6°F4.8°C 84% 3.8 mph SSW6.1 kmh SSW 4.0 mph6.4 kmh 30.17 in1021.7 mb 0.00 in0.0 mm 0.00 in0.0 mm 0.00 in0.0 mm
01:20 AM 45.1°F7.3°C 40.6°F4.8°C 84% 2.2 mph SSW3.5 kmh SSW 3.3 mph5.3 kmh 30.17 in1021.7 mb 0.00 in0.0 mm 0.00 in0.0 mm 0.00 in0.0 mm
01:15 AM 45.3°F7.4°C 40.7°F4.8°C 84% 1.5 mph SSW2.4 kmh SSW 3.3 mph5.3 kmh 30.17 in1021.7 mb 0.00 in0.0 mm 0.00 in0.0 mm 0.00 in0.0 mm
01:10 AM 45.6°F7.6°C 41.1°F5.1°C 84% 2.3 mph S3.7 kmh S 2.6 mph4.2 kmh 30.17 in1021.7 mb 0.00 in0.0 mm 0.00 in0.0 mm 0.00 in0.0 mm
01:05 AM 46.0°F7.8°C 41.5°F5.3°C 84% 1.5 mph SW2.4 kmh SW 2.4 mph3.9 kmh 30.17 in1021.7 mb 0.00 in0.0 mm 0.00 in0.0 mm 0.00 in0.0 mm
01:00 AM 45.8°F7.7°C 41.3°F5.2°C 84% 2.4 mph SW3.9 kmh SW 3.5 mph5.6 kmh 30.17 in1021.7 mb 0.00 in0.0 mm 0.00 in0.0 mm 0.00 in0.0 mm
12:55 AM 46.0°F7.8°C 41.5°F5.3°C 84% 2.2 mph SSW3.5 kmh SSW 3.5 mph5.6 kmh 30.17 in1021.7 mb 0.00 in0.0 mm 0.00 in0.0 mm 0.00 in0.0 mm
12:50 AM 45.8°F7.7°C 41.0°F5.0°C 83% 2.8 mph SSW4.5 kmh SSW 3.5 mph5.6 kmh 30.17 in1021.7 mb 0.00 in0.0 mm 0.00 in0.0 mm 0.00 in0.0 mm
12:45 AM 46.0°F7.8°C 41.2°F5.1°C 83% 2.9 mph SSW4.7 kmh SSW 4.0 mph6.4 kmh 30.17 in1021.7 mb 0.00 in0.0 mm 0.00 in0.0 mm 0.00 in0.0 mm
12:40 AM 46.0°F7.8°C 41.2°F5.1°C 83% 1.7 mph SW2.7 kmh SW 4.0 mph6.4 kmh 30.17 in1021.7 mb 0.00 in0.0 mm 0.00 in0.0 mm 0.00 in0.0 mm
12:35 AM 46.2°F7.9°C 41.3°F5.2°C 83% 3.5 mph SW5.6 kmh SW 4.0 mph6.4 kmh 30.17 in1021.7 mb 0.00 in0.0 mm 0.00 in0.0 mm 0.00 in0.0 mm
12:30 AM 46.7°F8.2°C 41.8°F5.4°C 83% 3.3 mph SW5.3 kmh SW 3.3 mph5.3 kmh 30.17 in1021.7 mb 0.00 in0.0 mm 0.00 in0.0 mm 0.00 in0.0 mm
12:25 AM 46.5°F8.1°C 41.7°F5.4°C 83% 2.8 mph SSW4.5 kmh SSW 3.1 mph5.0 kmh 30.18 in1022.0 mb 0.00 in0.0 mm 0.00 in0.0 mm 0.00 in0.0 mm
12:20 AM 46.4°F8.0°C 41.5°F5.3°C 83% 2.3 mph SSW3.7 kmh SSW 3.1 mph5.0 kmh 30.17 in1021.7 mb 0.00 in0.0 mm 0.00 in0.0 mm 0.00 in0.0 mm
12:15 AM 46.2°F7.9°C 41.0°F5.0°C 82% 2.3 mph S3.7 kmh S 3.1 mph5.0 kmh 30.17 in1021.7 mb 0.00 in0.0 mm 0.00 in0.0 mm 0.00 in0.0 mm
12:10 AM 46.2°F7.9°C 40.7°F4.8°C 82% 2.2 mph SSW3.5 kmh SSW 3.3 mph5.3 kmh 30.17 in1021.7 mb 0.00 in0.0 mm 0.00 in0.0 mm 0.00 in0.0 mm
12:05 AM 46.2°F7.9°C 40.7°F4.8°C 82% 2.3 mph SSW3.7 kmh SSW 3.3 mph5.3 kmh 30.17 in1021.7 mb 0.00 in0.0 mm 0.00 in0.0 mm 0.00 in0.0 mm
12:00 AM 46.2°F7.9°C 40.7°F4.8°C 81% 3.0 mph SW4.8 kmh SW 3.1 mph5.0 kmh 30.17 in1021.7 mb 0.00 in0.0 mm 0.00 in0.0 mm 0.00 in0.0 mm